• Join FlightAware (Why Join?)
  • Login
  • US Flag 
03:01PM EDT


 

Airport Tracker/Info


-or-


 

Live Flight TrackerFlight Track Log ✈ N1077Y ✈ 02-May-2012 ✈ KASD

Flight Track Log - Related Links

Times and Time Zones

All times are in EDT time to prevent confusion due to time zone crossing. See the N1077Y flight status page for this flight to view local times or setup timezone preferences in your user account.

Time Position Orientation Groundspeed Altitude Reporting Facility
EDT Latitude Longitude Course Direction KTS MPH feet Rate Location/Type
06:10PM -19.9693 -159.9294 46° Northeast  Level FlightAware Approximate
06:10PM 36.1011 -98.9406 124° Southeast 203 234 11,700  Level Kansas City Center
06:11PM 36.0719 -98.8875 122° Southeast 208 239 11,900 480 Climbing Kansas City Center
06:13PM 36.0078 -98.7603 129° Southeast 206 237 13,300 720 Climbing Fort Worth Center
06:14PM 35.9750 -98.7111 124° Southeast 196 226 14,300 900 Climbing Fort Worth Center
06:15PM 35.9483 -98.6619 121° Southeast 190 219 15,100 720 Climbing Fort Worth Center
06:16PM 35.9217 -98.6078 123° Southeast 184 212 15,800 720 Climbing Fort Worth Center
06:17PM 35.8931 -98.5536 122° Southeast 179 206 16,600 780 Climbing Fort Worth Center
06:18PM 35.8664 -98.5019 126° Southeast 179 206 17,400 420 Climbing Fort Worth Center
06:19PM 35.8356 -98.4503 127° Southeast 179 206 17,500  Climbing Fort Worth Center
06:20PM 35.8006 -98.3936 125° Southeast 189 217 17,500  Level Fort Worth Center
06:21PM 35.7678 -98.3369 125° Southeast 199 229 17,500  Level Fort Worth Center
06:22PM 35.7347 -98.2778 126° Southeast 205 236 17,500  Level Fort Worth Center
06:23PM 35.7017 -98.2211 125° Southeast 205 236 17,500  Level Fort Worth Center
06:24PM 35.6647 -98.1569 125° Southeast 205 236 17,500  Level Fort Worth Center
06:25PM 35.6294 -98.0953 125° Southeast 205 236 17,500  Level Fort Worth Center
06:26PM 35.5944 -98.0339 123° Southeast 210 242 17,500  Level Fort Worth Center
06:27PM 35.5614 -97.9725 126° Southeast 216 249 17,500  Level Fort Worth Center
06:28PM 35.5283 -97.9161 124° Southeast 216 249 17,500  Level Fort Worth Center
06:29PM 35.4931 -97.8519 123° Southeast 216 249 17,500  Level Fort Worth Center
06:30PM 35.4600 -97.7883 128° Southeast 216 249 17,500  Level Fort Worth Center
06:31PM 35.4203 -97.7269 127° Southeast 216 249 17,500  Level Fort Worth Center
06:32PM 35.3831 -97.6656 127° Southeast 221 254 17,500  Level Fort Worth Center
06:33PM 35.3456 -97.6044 124° Southeast 226 260 17,500  Level Fort Worth Center
06:34PM 35.3103 -97.5408 123° Southeast 226 260 17,500  Level Fort Worth Center
06:35PM 35.2706 -97.4669 124° Southeast 226 260 17,500  Level Fort Worth Center
06:36PM 35.2353 -97.4033 124° Southeast 226 260 17,500  Level Fort Worth Center
06:37PM 35.1997 -97.3400 131° Southeast 226 260 17,500  Level Fort Worth Center
06:38PM 35.1622 -97.2867 124° Southeast 226 260 17,500  Level Fort Worth Center
06:39PM 35.1244 -97.2181 126° Southeast 226 260 17,500  Level Fort Worth Center
06:40PM 35.0889 -97.1572 126° Southeast 226 260 17,500  Level Fort Worth Center
06:41PM 35.0514 -97.0939 125° Southeast 226 260 17,500  Level Fort Worth Center
06:42PM 35.0156 -97.0308 126° Southeast 226 260 17,500  Level Fort Worth Center
06:43PM 34.9778 -96.9675 126° Southeast 226 260 17,500  Level Fort Worth Center
06:44PM 34.9422 -96.9069 126° Southeast 226 260 17,500  Level Fort Worth Center
06:45PM 34.9064 -96.8464 125° Southeast 226 260 17,500  Level Fort Worth Center
06:46PM 34.8750 -96.7908 126° Southeast 226 260 17,500  Level Fort Worth Center
06:47PM 34.8369 -96.7281 125° Southeast 226 260 17,500  Level Fort Worth Center
06:48PM 34.8011 -96.6650 127° Southeast 226 260 17,500  Level Fort Worth Center
06:49PM 34.7633 -96.6047 125° Southeast 226 260 17,500  Level Fort Worth Center
06:50PM 34.7253 -96.5394 126° Southeast 226 260 17,500  Level Fort Worth Center
06:51PM 34.6872 -96.4767 126° Southeast 226 260 17,500  Level Fort Worth Center
06:52PM 34.6514 -96.4164 126° Southeast 226 260 17,500  Level Fort Worth Center
06:53PM 34.6092 -96.3464 125° Southeast 226 260 17,500  Level Fort Worth Center
06:54PM 34.5731 -96.2836 126° Southeast 226 260 17,500  Level Fort Worth Center
06:55PM 34.5350 -96.2211 128° Southeast 226 260 17,500  Level Fort Worth Center
06:56PM 34.4947 -96.1586 125° Southeast 226 260 17,500  Level Fort Worth Center
06:57PM 34.4586 -96.0964 124° Southeast 226 260 17,500  Level Fort Worth Center
06:58PM 34.4225 -96.0314 130° Southeast 226 260 17,500  Level Fort Worth Center
06:59PM 34.3864 -95.9792 124° Southeast 226 260 17,500  Level Fort Worth Center
07:00PM 34.3500 -95.9142 127° Southeast 226 260 17,500  Level Fort Worth Center
07:01PM 34.3097 -95.8497 128° Southeast 226 260 17,500  Level Fort Worth Center
07:02PM 34.2714 -95.7900 127° Southeast 226 260 17,500  Level Fort Worth Center
07:03PM 34.2331 -95.7281 124° Southeast 226 260 17,500  Level Fort Worth Center
07:04PM 34.1967 -95.6633 128° Southeast 231 266 17,500  Level Fort Worth Center
07:05PM 34.1583 -95.6039 123° Southeast 231 266 17,500  Level Fort Worth Center
07:06PM 34.1217 -95.5344 128° Southeast 231 266 17,500  Level Fort Worth Center
07:07PM 34.0811 -95.4725 125° Southeast 231 266 17,500  Level Fort Worth Center
07:08PM 34.0447 -95.4108 127° Southeast 231 266 17,500  Level Fort Worth Center
07:09PM 34.0061 -95.3489 128° Southeast 226 260 17,500  Level Fort Worth Center
07:10PM 33.9675 -95.2897 124° Southeast 226 260 17,500  Level Fort Worth Center
07:11PM 33.9311 -95.2256 130° Southeast 231 266 17,500  Level Fort Worth Center
07:12PM 33.8903 -95.1667 127° Southeast 231 266 17,500  Level Fort Worth Center
07:13PM 33.8517 -95.1050 127° Southeast 231 266 17,500  Level Fort Worth Center
07:14PM 33.8131 -95.0436 124° Southeast 231 266 17,500  Level Fort Worth Center
07:15PM 33.7764 -94.9794 127° Southeast 231 266 17,500  Level Fort Worth Center
07:16PM 33.7397 -94.9206 127° Southeast 226 260 17,500  Level Fort Worth Center
07:17PM 33.7008 -94.8594 127° Southeast 226 260 17,500  Level Fort Worth Center
07:18PM 33.6619 -94.7981 126° Southeast 226 260 17,500  Level Fort Worth Center
07:19PM 33.6253 -94.7367 127° Southeast 226 260 17,500  Level Fort Worth Center
07:20PM 33.5864 -94.6756 126° Southeast 226 260 17,500  Level Fort Worth Center
07:21PM 33.5494 -94.6144 129° Southeast 226 260 17,600  Climbing Fort Worth Center
07:22PM 33.5106 -94.5558 126° Southeast 226 260 17,500 -60 Descending Fort Worth Center
07:23PM 33.4717 -94.4925 126° Southeast 226 260 17,500  Level Fort Worth Center
07:24PM 33.4347 -94.4314 128° Southeast 226 260 17,500  Level Fort Worth Center
07:25PM 33.3956 -94.3706 127° Southeast 226 260 17,500  Level Fort Worth Center
07:26PM 33.3567 -94.3097 126° Southeast 226 260 17,500  Level Fort Worth Center
07:27PM 33.3175 -94.2464 129° Southeast 226 260 17,500  Level Fort Worth Center
07:28PM 33.2783 -94.1883 126° Southeast 226 260 17,500  Level Fort Worth Center
07:29PM 33.2414 -94.1275 127° Southeast 226 260 17,500  Level Fort Worth Center
07:30PM 33.2022 -94.0644 129° Southeast 231 266 17,500  Level Fort Worth Center
07:31PM 33.1631 -94.0064 126° Southeast 231 266 17,500  Level Fort Worth Center
07:32PM 33.1258 -93.9458 125° Southeast 231 266 17,500  Level Fort Worth Center
07:33PM 33.0886 -93.8828 127° Southeast 226 260 17,500  Level Fort Worth Center
07:34PM 33.0514 -93.8247 129° Southeast 226 260 17,500  Level Fort Worth Center
07:35PM 33.0100 -93.7644 128° Southeast 226 260 17,500  Level Fort Worth Center
07:36PM 32.9708 -93.7042 125° Southeast 226 260 17,500 -180 Level Fort Worth Center
07:37PM 32.9333 -93.6414 127° Southeast 226 260 17,200 -300 Descending Fort Worth Center
07:38PM 32.8939 -93.5786 128° Southeast 231 266 17,000 -120 Descending Fort Worth Center
07:39PM 32.8544 -93.5186 126° Southeast 231 266 17,000  Level Fort Worth Center
07:40PM 32.8172 -93.4583 128° Southeast 231 266 17,000  Level Fort Worth Center
07:41PM 32.7778 -93.3983 128° Southeast 231 266 17,000  Level Fort Worth Center
07:42PM 32.7403 -93.3408 128° Southeast 231 266 17,000  Level Fort Worth Center
07:43PM 32.7031 -93.2833 131° Southeast 225 259 17,000  Level Fort Worth Center
07:44PM 32.6658 -93.2331 127° Southeast 225 259 17,000  Level Fort Worth Center
07:45PM 32.6242 -93.1686 127° Southeast 225 259 17,000  Level Fort Worth Center
07:46PM 32.5908 -93.1158 130° Southeast 225 259 17,000  Level Fort Worth Center
07:47PM 32.5469 -93.0539 126° Southeast 225 259 17,000  Level Fort Worth Center
07:49PM 32.4806 -92.9447 130° Southeast 221 254 17,100  Climbing Houston Center
07:50PM 32.4414 -92.8900 128° Southeast 221 254 17,100  Level Houston Center
07:51PM 32.4022 -92.8306 126° Southeast 227 261 17,100  Level Houston Center
07:52PM 32.3653 -92.7711 128° Southeast 227 261 17,100 -60 Level Houston Center
07:53PM 32.3261 -92.7117 129° Southeast 227 261 17,000  Descending Houston Center
07:54PM 32.2869 -92.6550 129° Southeast 227 261 17,100  Climbing Houston Center
07:55PM 32.2478 -92.5981 127° Southeast 227 261 17,100  Level Houston Center
07:56PM 32.2086 -92.5364 128° Southeast 227 261 17,100  Level Houston Center
07:57PM 32.1694 -92.4772 128° Southeast 227 261 17,100  Level Houston Center
07:58PM 32.1300 -92.4181 127° Southeast 227 261 17,100  Level Houston Center
07:59PM 32.0908 -92.3567 128° Southeast 227 261 17,100  Level Houston Center
08:00PM 32.0514 -92.2975 128° Southeast 227 261 17,100  Level Houston Center
08:01PM 32.0100 -92.2361 127° Southeast 227 261 17,100  Level Houston Center
08:02PM 31.9708 -92.1747 129° Southeast 227 261 17,100  Level Houston Center
08:03PM 31.9292 -92.1133 131° Southeast 227 261 17,100  Level Houston Center
08:04PM 31.8878 -92.0569 126° Southeast 227 261 17,100  Level Houston Center
08:05PM 31.8503 -91.9958 131° Southeast 227 261 17,100  Level Houston Center
08:06PM 31.8086 -91.9394 124° Southeast 227 261 17,100  Level Houston Center
08:07PM 31.7733 -91.8783 131° Southeast 227 261 17,100  Level Houston Center
08:08PM 31.7317 -91.8222 128° Southeast 227 261 17,100  Level Houston Center
08:09PM 31.6942 -91.7658 130° Southeast 227 261 17,100  Level Houston Center
08:10PM 31.6525 -91.7075 128° Southeast 227 261 17,100  Level Houston Center
08:11PM 31.6131 -91.6489 129° Southeast 227 261 17,100  Level Houston Center
08:12PM 31.5733 -91.5906 127° Southeast 227 261 17,100  Level Houston Center
08:13PM 31.5358 -91.5319 130° Southeast 227 261 17,100  Level Houston Center
08:14PM 31.4961 -91.4761 130° Southeast 227 261 17,100  Level Houston Center
08:15PM 31.4564 -91.4203 126° Southeast 227 261 17,100  Level Houston Center
08:16PM 31.4208 -91.3619 131° Southeast 227 261 17,100  Level Houston Center
08:17PM 31.3808 -91.3086 128° Southeast 227 261 17,100  Level Houston Center
08:18PM 31.3433 -91.2528 128° Southeast 227 261 17,100 -120 Level Houston Center
08:19PM 31.3056 -91.1969 127° Southeast 227 261 16,900 -480 Descending Houston Center
08:20PM 31.2697 -91.1414 129° Southeast 227 261 16,200 -720 Descending Houston Center
08:21PM 31.2258 -91.0783 132° Southeast 232 267 15,500 -780 Descending Houston Center
08:22PM 31.1797 -91.0181 131° Southeast 237 273 14,700 -900 Descending Houston Center
08:23PM 31.1356 -90.9578 129° Southeast 242 278 13,700 -900 Descending Houston Center
08:24PM 31.0933 -90.8975 129° Southeast 242 278 12,900 -840 Descending Houston Center
08:25PM 31.0514 -90.8372 129° Southeast 242 278 12,100 -840 Descending Houston Center
08:26PM 31.0114 -90.7792 129° Southeast 237 273 11,300 -660 Descending Houston Center
08:27PM 30.9714 -90.7214 128° Southeast 237 273 10,800 -600 Descending Houston Center
08:28PM 30.9333 -90.6639 128° Southeast 232 267 10,200 -660 Descending Houston Center
08:29PM 30.8975 -90.6108 131° Southeast 227 261 9,500 -720 Descending Houston Center
08:30PM 30.8575 -90.5581 129° Southeast 222 255 8,800 -840 Descending Houston Center
08:31PM 30.8214 -90.5053 123° Southeast 222 255 7,900 -660 Descending Houston Center
08:32PM 30.7917 -90.4525 115° Southeast 211 243 7,500 -300 Descending Houston Center
08:33PM 30.7703 -90.3994 115° Southeast 191 220 7,400 -240 Descending Houston Center
08:34PM 30.7492 -90.3467 117° Southeast 180 207 7,100 -420 Descending Houston Center
08:35PM 30.7256 -90.2939 118° Southeast 180 207 6,600 -600 Descending Houston Center
08:36PM 30.7022 -90.2433 117° Southeast 180 207 6,000 -540 Descending Houston Center
08:37PM 30.6786 -90.1906 119° Southeast 180 207 5,600 -300 Descending Houston Center
08:38PM 30.6550 -90.1403 119° Southeast 180 207 5,400 -480 Descending Houston Center
08:39PM 30.6294 -90.0875 120° Southeast 180 207 4,700 -720 Descending Houston Center
08:40PM 30.6036 -90.0350 117° Southeast 180 207 4,000 -660 Descending Houston Center
08:41PM 30.5800 -89.9822 117° Southeast 180 207 3,400 -660 Descending Houston Center
08:42PM 30.5586 -89.9344 116° Southeast 180 207 2,700 -720 Descending Houston Center
08:43PM 30.5392 -89.8889 119° Southeast 170 196 2,000 -360 Descending Houston Center
08:44PM 30.5200 -89.8483 126° Southeast 165 190 2,000 60 Level Houston Center
08:45PM 30.5050 -89.8244 178° South 141 162 2,100 -60 Climbing Houston Center
08:46PM 30.4611 -89.8228 170° South 118 136 1,900 1,200 Descending Houston Center
08:47PM 30.4278 -89.8161 318° Northwest 118 136 5,000 3,060 Climbing Houston Center
08:55PM 30.5460 -89.9400 145° Southeast  Level FlightAware Approximate
08:56PM 30.4972 -89.8997 145° Southeast  Level FlightAware Approximate
08:57PM 30.4483 -89.8594 154° Southeast  Level FlightAware Approximate
08:58PM 30.3958 -89.8291 172° South  Level FlightAware Approximate
08:59PM 30.3364 -89.8191 146° Southeast  Level Estimated
09:00PM 30.3333 -89.8167 345° North  Level FlightAware Approximate
09:01PM 30.3912 -89.8350 165° South  Level Estimated
09:02PM 30.3333 -89.8167 345° North  Level FlightAware Approximate
09:03PM 30.3912 -89.8350 165° South  Level Estimated
09:04PM 30.3333 -89.8167 345° North  Level FlightAware Approximate
09:05PM 30.3912 -89.8350 165° South  Level Estimated
09:06PM 30.3333 -89.8167 345° North  Level FlightAware Approximate
09:07PM 30.3912 -89.8350 345° North  Level Estimated